createdAt,value
2018-07-21T00:01:13.578Z,18.11
2018-07-21T00:03:43.198Z,18.18
2018-07-21T00:06:13.518Z,18.06
2018-07-21T00:08:42.983Z,18.01
2018-07-21T00:11:12.516Z,17.95
2018-07-21T00:13:42.225Z,17.91
2018-07-21T00:16:11.639Z,17.71
2018-07-21T00:18:41.173Z,17.56
2018-07-21T00:21:10.587Z,17.46
2018-07-21T00:23:40.098Z,17.52
2018-07-21T00:26:09.679Z,17.40
2018-07-21T00:28:39.749Z,17.30
2018-07-21T00:31:09.165Z,17.22
2018-07-21T00:33:38.676Z,17.15
2018-07-21T00:36:08.388Z,17.21
2018-07-21T00:38:37.828Z,17.08
2018-07-21T00:41:07.321Z,17.14
2018-07-21T00:43:36.750Z,16.97
2018-07-21T00:46:07.377Z,17.09
2018-07-21T00:48:37.381Z,17.13
2018-07-21T00:51:06.974Z,17.14
2018-07-21T00:53:36.394Z,17.04
2018-07-21T00:56:05.820Z,17.03
2018-07-21T00:58:35.330Z,16.93
2018-07-21T01:01:04.720Z,16.87
2018-07-21T01:03:34.210Z,16.83
2018-07-21T01:06:03.726Z,16.70
2018-07-21T01:08:33.152Z,16.59
2018-07-21T01:11:02.613Z,16.56
2018-07-21T01:13:32.251Z,16.53
2018-07-21T01:16:02.351Z,16.43
2018-07-21T01:18:31.999Z,16.41
2018-07-21T01:21:01.502Z,16.24
2018-07-21T01:23:31.020Z,16.13
2018-07-21T01:26:00.498Z,16.08
2018-07-21T01:28:30.710Z,16.05
2018-07-21T01:31:00.192Z,15.96
2018-07-21T01:33:29.690Z,15.86
2018-07-21T01:35:59.062Z,15.76
2018-07-21T01:38:28.681Z,15.85
2018-07-21T01:40:58.638Z,15.71
2018-07-21T01:43:28.071Z,15.67
2018-07-21T01:45:57.510Z,15.76
2018-07-21T01:48:27.278Z,15.80
2018-07-21T01:50:56.638Z,15.85
2018-07-21T01:53:26.156Z,15.85
2018-07-21T01:55:55.620Z,15.89
2018-07-21T01:58:25.212Z,15.94
2018-07-21T02:00:54.574Z,15.87
2018-07-21T02:03:24.162Z,15.89
2018-07-21T02:05:53.669Z,15.76
2018-07-21T02:08:23.302Z,15.72
2018-07-21T02:10:52.976Z,15.62
2018-07-21T02:13:22.812Z,15.55
2018-07-21T02:15:52.283Z,15.54
2018-07-21T02:18:21.828Z,15.65
2018-07-21T02:20:51.280Z,15.61
2018-07-21T02:23:21.555Z,15.64
2018-07-21T02:25:50.972Z,15.67
2018-07-21T02:28:20.556Z,15.66
2018-07-21T02:30:50.565Z,15.83
2018-07-21T02:33:20.075Z,15.81
2018-07-21T02:35:49.618Z,15.82
2018-07-21T02:38:19.341Z,15.97
2018-07-21T02:40:48.827Z,15.99
2018-07-21T02:43:18.457Z,16.00
2018-07-21T02:45:47.997Z,16.00
2018-07-21T02:48:17.575Z,16.02
2018-07-21T02:50:47.110Z,16.08
2018-07-21T02:53:16.597Z,16.31
2018-07-21T02:55:46.433Z,16.33
2018-07-21T02:58:15.793Z,16.42
2018-07-21T03:00:45.192Z,16.53
2018-07-21T03:03:14.771Z,16.60
2018-07-21T03:05:44.239Z,16.69
2018-07-21T03:08:13.833Z,16.70
2018-07-21T03:10:43.233Z,16.64
2018-07-21T03:13:12.797Z,16.63
2018-07-21T03:15:42.327Z,16.68
2018-07-21T03:18:12.208Z,16.63
2018-07-21T03:20:41.671Z,16.53
2018-07-21T03:23:11.223Z,16.60
2018-07-21T03:25:40.726Z,16.49
2018-07-21T03:28:10.138Z,16.40
2018-07-21T03:30:39.613Z,16.31
2018-07-21T03:33:09.296Z,16.24
2018-07-21T03:35:38.551Z,16.15
2018-07-21T03:38:08.105Z,16.05
2018-07-21T03:40:37.516Z,15.96
2018-07-21T03:43:07.200Z,15.93
2018-07-21T03:45:36.727Z,15.96
2018-07-21T03:48:06.333Z,15.99
2018-07-21T03:50:36.010Z,15.95
2018-07-21T03:53:06.411Z,15.90
2018-07-21T03:55:35.852Z,16.13
2018-07-21T03:58:05.434Z,16.17
2018-07-21T04:00:35.489Z,16.25
2018-07-21T04:03:05.029Z,16.31
2018-07-21T04:05:34.483Z,16.36
2018-07-21T04:08:04.004Z,16.36
2018-07-21T04:10:33.393Z,16.39
2018-07-21T04:13:02.785Z,16.56
2018-07-21T04:15:32.222Z,16.67
2018-07-21T04:18:02.173Z,16.67
2018-07-21T04:20:31.756Z,16.67
2018-07-21T04:23:01.514Z,16.65
2018-07-21T04:25:30.873Z,16.68
2018-07-21T04:28:02.006Z,16.68
2018-07-21T04:30:31.391Z,16.67
2018-07-21T04:33:00.979Z,16.65
2018-07-21T04:35:31.276Z,16.61
2018-07-21T04:38:01.346Z,16.67
2018-07-21T04:40:30.750Z,16.87
2018-07-21T04:43:00.289Z,17.08
2018-07-21T04:45:29.622Z,17.16
2018-07-21T04:47:59.200Z,17.13
2018-07-21T04:50:28.733Z,17.16
2018-07-21T04:52:58.291Z,17.23
2018-07-21T04:55:27.691Z,17.24
2018-07-21T04:57:57.191Z,17.29
2018-07-21T05:00:26.632Z,17.41
2018-07-21T05:02:56.374Z,17.56
2018-07-21T05:05:26.003Z,17.54
2018-07-21T05:07:55.613Z,17.58
2018-07-21T05:10:25.036Z,17.65
2018-07-21T05:12:54.466Z,17.68
2018-07-21T05:15:26.576Z,17.74
2018-07-21T05:17:56.243Z,17.88
2018-07-21T05:20:25.623Z,18.04
2018-07-21T05:22:55.104Z,18.13
2018-07-21T05:25:24.511Z,18.08
2018-07-21T05:27:53.982Z,18.13
2018-07-21T05:30:23.367Z,18.24
2018-07-21T05:32:53.622Z,18.39
2018-07-21T05:35:23.063Z,18.44
2018-07-21T05:37:54.546Z,18.56
2018-07-21T05:40:24.102Z,18.59
2018-07-21T05:42:53.502Z,18.77
2018-07-21T05:45:22.943Z,18.99
2018-07-21T05:47:52.382Z,19.15
2018-07-21T05:50:22.003Z,19.18
2018-07-21T05:52:51.831Z,19.33
2018-07-21T05:55:21.326Z,19.47
2018-07-21T05:57:51.918Z,19.57
2018-07-21T06:00:21.375Z,19.60
2018-07-21T06:02:51.045Z,19.66
2018-07-21T06:05:20.564Z,19.80
2018-07-21T06:07:49.964Z,19.85
2018-07-21T06:10:19.522Z,19.81
2018-07-21T06:12:49.035Z,19.85
2018-07-21T06:15:18.596Z,19.96
2018-07-21T06:17:48.019Z,20.04
2018-07-21T06:20:17.636Z,20.15
2018-07-21T06:22:47.036Z,20.26
2018-07-21T06:25:16.816Z,20.40
2018-07-21T06:27:46.301Z,20.56
2018-07-21T06:30:15.819Z,20.69
2018-07-21T06:32:45.560Z,20.77
2018-07-21T06:35:15.119Z,20.81
2018-07-21T06:37:44.858Z,20.78
2018-07-21T06:40:14.419Z,20.78
2018-07-21T06:42:44.019Z,20.82
2018-07-21T06:45:13.459Z,20.85
2018-07-21T06:47:42.859Z,20.99
2018-07-21T06:50:12.318Z,21.12
2018-07-21T06:52:41.758Z,21.21
2018-07-21T06:55:13.018Z,21.15
2018-07-21T06:57:44.718Z,21.12
2018-07-21T07:00:14.198Z,21.09
2018-07-21T07:02:43.598Z,20.95
2018-07-21T07:05:13.158Z,20.97
2018-07-21T07:07:42.559Z,21.09
2018-07-21T07:10:12.017Z,21.17
2018-07-21T07:12:41.597Z,21.35
2018-07-21T07:15:11.416Z,21.49
2018-07-21T07:17:40.882Z,21.68
2018-07-21T07:20:10.404Z,21.87
2018-07-21T07:22:39.838Z,22.07
2018-07-21T07:25:09.678Z,22.05
2018-07-21T07:27:39.498Z,22.06
2018-07-21T07:30:09.204Z,22.11
2018-07-21T07:32:38.598Z,22.06
2018-07-21T07:35:08.560Z,22.18
2018-07-21T07:37:37.978Z,22.39
2018-07-21T07:40:08.399Z,22.63
2018-07-21T07:42:37.860Z,22.88
2018-07-21T07:45:07.346Z,23.06
2018-07-21T07:47:36.698Z,22.82
2018-07-21T07:50:06.798Z,22.73
2018-07-21T07:52:36.238Z,22.71
2018-07-21T07:55:05.743Z,22.77
2018-07-21T07:57:35.098Z,22.88
2018-07-21T08:00:04.458Z,22.93
2018-07-21T08:02:34.058Z,23.15
2018-07-21T08:05:03.518Z,23.34
2018-07-21T08:07:33.039Z,23.44
2018-07-21T08:10:02.618Z,23.54
2018-07-21T08:12:32.018Z,23.66
2018-07-21T08:15:01.578Z,23.76
2018-07-21T08:17:31.079Z,23.95
2018-07-21T08:20:04.208Z,24.13
2018-07-21T08:22:34.300Z,24.21
2018-07-21T08:25:04.027Z,24.38
2018-07-21T08:27:33.253Z,24.44
2018-07-21T08:30:02.479Z,24.61
2018-07-21T08:32:31.752Z,24.60
2018-07-21T08:35:01.310Z,24.58
2018-07-21T08:37:30.347Z,24.63
2018-07-21T08:39:59.839Z,24.47
2018-07-21T08:42:29.204Z,24.27
2018-07-21T08:44:58.729Z,24.04
2018-07-21T08:47:28.088Z,24.01
2018-07-21T08:49:57.630Z,24.02
2018-07-21T08:52:27.241Z,24.01
2018-07-21T08:54:57.926Z,24.00
2018-07-21T08:57:27.426Z,24.13
2018-07-21T08:59:56.890Z,24.12
2018-07-21T09:02:26.407Z,24.07
2018-07-21T09:04:56.048Z,24.23
2018-07-21T09:07:25.472Z,24.48
2018-07-21T09:09:55.265Z,24.42
2018-07-21T09:12:24.724Z,24.44
2018-07-21T09:14:54.186Z,24.53
2018-07-21T09:17:23.584Z,24.78
2018-07-21T09:19:54.206Z,24.87
2018-07-21T09:22:23.746Z,25.04
2018-07-21T09:24:53.204Z,25.05
2018-07-21T09:27:22.666Z,25.19
2018-07-21T09:29:52.205Z,25.40
2018-07-21T09:32:21.512Z,25.53
2018-07-21T09:34:50.987Z,25.75
2018-07-21T09:37:20.613Z,25.76
2018-07-21T09:39:50.404Z,25.95
2018-07-21T09:42:19.905Z,26.12
2018-07-21T09:44:49.567Z,26.16
2018-07-21T09:47:18.986Z,26.24
2018-07-21T09:49:48.766Z,26.26
2018-07-21T09:52:18.323Z,26.32
2018-07-21T09:54:47.926Z,26.31
2018-07-21T09:57:17.567Z,26.23
2018-07-21T09:59:47.031Z,26.26
2018-07-21T10:02:16.405Z,26.29
2018-07-21T10:04:45.831Z,26.24
2018-07-21T10:07:15.587Z,26.36
2018-07-21T10:09:45.109Z,26.32
2018-07-21T10:12:14.556Z,26.42
2018-07-21T10:14:44.025Z,26.55
2018-07-21T10:17:13.665Z,26.56
2018-07-21T10:19:43.204Z,26.69
2018-07-21T10:22:12.656Z,26.60
2018-07-21T10:24:47.425Z,26.70
2018-07-21T10:27:17.344Z,26.69
2018-07-21T10:29:47.024Z,26.78
2018-07-21T10:32:16.466Z,26.95
2018-07-21T10:34:46.165Z,27.02
2018-07-21T10:37:15.609Z,27.16
2018-07-21T10:39:45.346Z,27.06
2018-07-21T10:42:14.785Z,27.06
2018-07-21T10:44:44.864Z,27.08
2018-07-21T10:47:14.325Z,27.02
2018-07-21T10:49:43.846Z,27.10
2018-07-21T10:52:13.143Z,27.04
2018-07-21T10:54:42.584Z,27.03
2018-07-21T10:57:12.135Z,27.02
2018-07-21T10:59:42.138Z,27.03
2018-07-21T11:02:11.585Z,27.00
2018-07-21T11:04:41.139Z,27.22
2018-07-21T11:07:10.480Z,27.34
2018-07-21T11:09:40.557Z,27.50
2018-07-21T11:12:09.965Z,27.65
2018-07-21T11:14:39.417Z,27.87
2018-07-21T11:17:08.936Z,28.08
2018-07-21T11:19:38.376Z,28.17
2018-07-21T11:22:08.095Z,28.27
2018-07-21T11:24:37.478Z,28.19
2018-07-21T11:27:06.917Z,28.42
2018-07-21T11:29:36.376Z,28.60
2018-07-21T11:32:05.918Z,28.86
2018-07-21T11:34:35.391Z,29.06
2018-07-21T11:37:05.028Z,28.91
2018-07-21T11:39:34.482Z,28.50
2018-07-21T11:42:04.137Z,28.43
2018-07-21T11:44:33.724Z,28.19
2018-07-21T11:47:03.838Z,28.10
2018-07-21T11:49:33.222Z,28.08
2018-07-21T11:52:02.869Z,27.84
2018-07-21T11:54:32.212Z,27.76
2018-07-21T11:57:02.978Z,27.61
2018-07-21T11:59:33.973Z,27.57
2018-07-21T12:02:03.592Z,27.39
2018-07-21T12:04:32.951Z,27.23
2018-07-21T12:07:02.531Z,27.14
2018-07-21T12:09:31.973Z,27.11
2018-07-21T12:12:01.508Z,26.90
2018-07-21T12:14:30.896Z,26.26
2018-07-21T12:17:00.309Z,25.89
2018-07-21T12:19:29.691Z,25.68
2018-07-21T12:21:59.313Z,25.50
2018-07-21T12:24:28.769Z,25.44
2018-07-21T12:26:58.319Z,25.38
2018-07-21T12:29:27.838Z,25.52
2018-07-21T12:31:57.602Z,25.68
2018-07-21T12:34:26.998Z,25.78
2018-07-21T12:36:56.438Z,25.92
2018-07-21T12:39:26.178Z,26.07
2018-07-21T12:41:55.638Z,26.34
2018-07-21T12:44:25.026Z,26.54
2018-07-21T12:46:54.506Z,26.76
2018-07-21T12:49:24.000Z,26.81
2018-07-21T12:51:53.639Z,26.95
2018-07-21T12:54:23.041Z,26.93
2018-07-21T12:56:52.622Z,27.09
2018-07-21T12:59:22.319Z,27.36
2018-07-21T13:01:51.959Z,27.45
2018-07-21T13:04:21.479Z,27.65
2018-07-21T13:06:51.037Z,27.80
2018-07-21T13:09:20.639Z,28.06
2018-07-21T13:11:50.140Z,28.35
2018-07-21T13:14:19.582Z,28.52
2018-07-21T13:16:49.199Z,28.68
2018-07-21T13:19:18.840Z,28.68
2018-07-21T13:21:48.619Z,28.80
2018-07-21T13:24:17.980Z,29.03
2018-07-21T13:26:47.550Z,29.35
2018-07-21T13:29:17.042Z,29.42
2018-07-21T13:31:46.710Z,29.41
2018-07-21T13:34:16.242Z,29.46
2018-07-21T13:36:45.819Z,29.44
2018-07-21T13:39:15.169Z,29.57
2018-07-21T13:41:44.821Z,29.30
2018-07-21T13:44:14.497Z,29.39
2018-07-21T13:46:44.008Z,29.38
2018-07-21T13:49:13.340Z,29.52
2018-07-21T13:51:42.940Z,29.73
2018-07-21T13:54:12.563Z,30.08
2018-07-21T13:56:42.099Z,30.52
2018-07-21T13:59:11.520Z,31.03
2018-07-21T14:01:41.540Z,31.46
2018-07-21T14:04:10.940Z,31.49
2018-07-21T14:06:40.381Z,31.01
2018-07-21T14:09:10.948Z,31.01
2018-07-21T14:11:40.563Z,30.40
2018-07-21T14:14:10.081Z,30.46
2018-07-21T14:16:39.541Z,30.47
2018-07-21T14:19:08.920Z,30.46
2018-07-21T14:21:38.360Z,31.00
2018-07-21T14:24:07.823Z,31.70
2018-07-21T14:26:37.241Z,32.01
2018-07-21T14:29:07.262Z,32.49
2018-07-21T14:31:36.720Z,33.02
2018-07-21T14:34:06.200Z,33.57
2018-07-21T14:36:35.708Z,33.32
2018-07-21T14:39:07.042Z,33.42
2018-07-21T14:41:37.466Z,33.41
2018-07-21T14:44:06.880Z,33.61
2018-07-21T14:46:36.560Z,33.53
2018-07-21T14:49:06.724Z,33.53
2018-07-21T14:51:36.760Z,33.06
2018-07-21T14:54:06.368Z,32.85
2018-07-21T14:56:35.925Z,32.29
2018-07-21T14:59:05.525Z,32.28
2018-07-21T15:01:35.121Z,32.44
2018-07-21T15:04:04.563Z,32.23
2018-07-21T15:06:34.096Z,32.75
2018-07-21T15:09:03.797Z,33.46
2018-07-21T15:11:33.311Z,33.41
2018-07-21T15:14:03.327Z,33.36
2018-07-21T15:16:32.931Z,33.50
2018-07-21T15:19:02.439Z,33.06
2018-07-21T15:21:35.546Z,33.04
2018-07-21T15:24:05.070Z,33.06
2018-07-21T15:26:34.646Z,32.61
2018-07-21T15:29:04.285Z,32.06
2018-07-21T15:31:34.056Z,31.96
2018-07-21T15:34:03.580Z,31.30
2018-07-21T15:36:33.138Z,31.47
2018-07-21T15:39:02.531Z,31.44
2018-07-21T15:41:32.239Z,30.97
2018-07-21T15:44:01.759Z,30.72
2018-07-21T15:46:31.278Z,30.07
2018-07-21T15:49:01.040Z,29.86
2018-07-21T15:51:30.578Z,29.61
2018-07-21T15:54:00.058Z,29.54
2018-07-21T15:56:29.666Z,29.21
2018-07-21T15:58:59.118Z,28.96
2018-07-21T16:01:28.786Z,28.47
2018-07-21T16:03:58.351Z,27.91
2018-07-21T16:06:27.905Z,27.91
2018-07-21T16:08:57.311Z,27.69
2018-07-21T16:11:27.089Z,27.55
2018-07-21T16:13:56.549Z,27.54
2018-07-21T16:16:27.108Z,27.75
2018-07-21T16:18:56.550Z,28.13
2018-07-21T16:21:26.877Z,28.45
2018-07-21T16:23:56.179Z,28.71
2018-07-21T16:26:25.650Z,29.63
2018-07-21T16:28:55.109Z,30.05
2018-07-21T16:31:24.616Z,30.29
2018-07-21T16:33:54.077Z,30.77
2018-07-21T16:36:23.790Z,31.36
2018-07-21T16:38:53.330Z,31.31
2018-07-21T16:41:22.969Z,31.45
2018-07-21T16:43:52.389Z,31.00
2018-07-21T16:46:22.985Z,31.04
2018-07-21T16:48:52.388Z,31.33
2018-07-21T16:51:22.769Z,31.53
2018-07-21T16:53:52.248Z,31.28
2018-07-21T16:56:22.569Z,30.75
2018-07-21T16:58:52.223Z,30.42
2018-07-21T17:01:21.669Z,30.83
2018-07-21T17:03:51.238Z,31.15
2018-07-21T17:06:20.809Z,30.99
2018-07-21T17:08:50.320Z,31.06
2018-07-21T17:11:19.724Z,30.61
2018-07-21T17:13:49.368Z,30.41
2018-07-21T17:16:19.624Z,30.62
2018-07-21T17:18:49.285Z,30.41
2018-07-21T17:21:18.773Z,30.42
2018-07-21T17:23:48.345Z,30.58
2018-07-21T17:26:17.872Z,30.48
2018-07-21T17:28:47.485Z,30.23
2018-07-21T17:31:16.924Z,29.46
2018-07-21T17:33:46.455Z,29.05
2018-07-21T17:36:15.813Z,28.86
2018-07-21T17:38:45.356Z,28.57
2018-07-21T17:41:15.273Z,28.59
2018-07-21T17:43:44.748Z,28.42
2018-07-21T17:46:14.148Z,28.26
2018-07-21T17:48:43.647Z,27.89
2018-07-21T17:51:12.968Z,27.57
2018-07-21T17:53:42.551Z,27.41
2018-07-21T17:56:11.968Z,26.80
2018-07-21T17:58:41.449Z,26.70
2018-07-21T18:01:10.892Z,26.72
2018-07-21T18:03:40.501Z,26.31
2018-07-21T18:06:10.209Z,25.99
2018-07-21T18:08:40.788Z,25.65
2018-07-21T18:11:10.411Z,25.59
2018-07-21T18:13:40.405Z,25.34
2018-07-21T18:16:10.092Z,25.22
2018-07-21T18:18:39.783Z,25.05
2018-07-21T18:21:09.787Z,24.81
2018-07-21T18:23:39.411Z,24.64
2018-07-21T18:26:09.350Z,24.44
2018-07-21T18:28:39.419Z,24.46
2018-07-21T18:31:09.196Z,24.43
2018-07-21T18:33:38.703Z,24.32
2018-07-21T18:36:08.320Z,24.21
2018-07-21T18:38:38.144Z,24.05
2018-07-21T18:41:08.583Z,23.95
2018-07-21T18:43:38.630Z,23.87
2018-07-21T18:46:08.661Z,23.89
2018-07-21T18:48:38.194Z,23.78
2018-07-21T18:51:10.055Z,23.70
2018-07-21T18:53:39.671Z,23.59
2018-07-21T18:56:09.700Z,23.53
2018-07-21T18:58:39.442Z,23.39
2018-07-21T19:01:09.512Z,23.33
2018-07-21T19:03:39.173Z,23.22
2018-07-21T19:06:08.704Z,23.20
2018-07-21T19:08:43.422Z,23.21
2018-07-21T19:11:13.402Z,23.29
2018-07-21T19:13:42.963Z,23.13
2018-07-21T19:16:17.583Z,23.11
2018-07-21T19:18:47.202Z,23.00
2018-07-21T19:21:18.141Z,22.92
2018-07-21T19:23:48.582Z,22.99
2018-07-21T19:26:22.832Z,22.99
2018-07-21T19:28:53.001Z,22.86
2018-07-21T19:31:22.734Z,22.89
2018-07-21T19:33:52.257Z,22.73
2018-07-21T19:36:21.695Z,22.81
2018-07-21T19:38:51.414Z,22.62
2018-07-21T19:41:25.925Z,22.49
2018-07-21T19:43:55.375Z,22.40
2018-07-21T19:46:24.816Z,22.21
2018-07-21T19:48:54.421Z,22.08
2018-07-21T19:51:23.852Z,22.06
2018-07-21T19:53:53.414Z,21.94
2018-07-21T19:56:22.691Z,21.97
2018-07-21T19:58:52.556Z,22.00
2018-07-21T20:01:22.372Z,21.85
2018-07-21T20:03:51.772Z,21.74
2018-07-21T20:06:21.236Z,21.59
2018-07-21T20:08:50.940Z,21.57
2018-07-21T20:11:20.380Z,21.49
2018-07-21T20:13:50.081Z,21.43
2018-07-21T20:16:19.703Z,21.45
2018-07-21T20:18:49.285Z,21.33
2018-07-21T20:21:19.093Z,21.25
2018-07-21T20:23:48.547Z,21.20
2018-07-21T20:26:18.305Z,21.13
2018-07-21T20:28:47.850Z,21.01
2018-07-21T20:31:18.203Z,20.98
2018-07-21T20:33:47.733Z,20.93
2018-07-21T20:36:17.119Z,20.86
2018-07-21T20:38:46.638Z,20.85
2018-07-21T20:41:17.479Z,20.77
2018-07-21T20:43:47.043Z,20.69
2018-07-21T20:46:16.440Z,20.65
2018-07-21T20:48:45.920Z,20.61
2018-07-21T20:51:15.322Z,20.56
2018-07-21T20:53:44.917Z,20.51
2018-07-21T20:56:14.525Z,20.54
2018-07-21T20:58:44.129Z,20.50
2018-07-21T21:01:13.582Z,20.59
2018-07-21T21:03:43.389Z,20.52
2018-07-21T21:06:13.425Z,20.48
2018-07-21T21:08:42.943Z,20.46
2018-07-21T21:11:12.555Z,20.40
2018-07-21T21:13:42.142Z,20.37
2018-07-21T21:16:11.582Z,20.33
2018-07-21T21:18:41.025Z,20.27
2018-07-21T21:21:10.480Z,20.29
2018-07-21T21:23:39.933Z,20.28
2018-07-21T21:26:09.238Z,20.31
2018-07-21T21:28:38.802Z,20.25
2018-07-21T21:31:08.217Z,20.21
2018-07-21T21:33:37.663Z,20.20
2018-07-21T21:36:07.108Z,20.17
2018-07-21T21:38:36.469Z,20.12
2018-07-21T21:41:06.133Z,20.10
2018-07-21T21:43:35.610Z,20.10
2018-07-21T21:46:05.183Z,20.12
2018-07-21T21:48:34.724Z,20.07
2018-07-21T21:51:04.429Z,20.04
2018-07-21T21:53:33.788Z,20.05
2018-07-21T21:56:03.290Z,20.01
2018-07-21T21:58:32.706Z,19.95
2018-07-21T22:01:05.122Z,20.08
2018-07-21T22:03:34.890Z,20.04
2018-07-21T22:06:04.538Z,19.97
2018-07-21T22:08:34.806Z,19.84
2018-07-21T22:11:04.891Z,19.81
2018-07-21T22:13:34.725Z,19.77
2018-07-21T22:16:04.153Z,19.75
2018-07-21T22:18:33.982Z,19.72
2018-07-21T22:21:03.448Z,19.72
2018-07-21T22:23:32.866Z,19.66
2018-07-21T22:26:02.285Z,19.65
2018-07-21T22:28:31.763Z,19.59
2018-07-21T22:31:01.535Z,19.56
2018-07-21T22:33:31.011Z,19.50
2018-07-21T22:36:00.504Z,19.47
2018-07-21T22:38:30.141Z,19.37
2018-07-21T22:40:59.528Z,19.36
2018-07-21T22:43:29.272Z,19.42
2018-07-21T22:45:58.679Z,19.37
2018-07-21T22:48:28.160Z,19.36
2018-07-21T22:50:57.661Z,19.31
2018-07-21T22:53:27.123Z,19.26
2018-07-21T22:55:56.969Z,19.26
2018-07-21T22:58:26.490Z,19.26
2018-07-21T23:00:55.928Z,19.25
2018-07-21T23:03:25.883Z,19.25
2018-07-21T23:05:55.417Z,19.26
2018-07-21T23:08:24.890Z,19.25
2018-07-21T23:23:04.468Z,19.11
2018-07-21T23:25:34.189Z,19.04
2018-07-21T23:28:04.083Z,19.13
2018-07-21T23:30:33.772Z,19.02
2018-07-21T23:33:03.608Z,18.95
2018-07-21T23:35:34.164Z,18.93
2018-07-21T23:38:04.146Z,18.94
2018-07-21T23:40:34.292Z,18.94
2018-07-21T23:43:04.083Z,18.89
2018-07-21T23:45:33.862Z,18.85
2018-07-21T23:48:03.505Z,18.82
2018-07-21T23:50:33.354Z,18.79
2018-07-21T23:53:03.186Z,18.78
2018-07-21T23:55:33.022Z,18.77
2018-07-21T23:58:02.848Z,18.77
